Time;durP1;ratioP1;P1;durP2;ratioP2;P2;SDS_P1;SDS_P2;PMS_P1;PMS_P2;Temp;Humidity;BMP_temperature;BMP_pressure;BME280_temperature;BME280_humidity;BME280_pressure;Samples;Min_cycle;Max_cycle;Signal;HPM_P1;HPM_P2
2022/06/27 00:00:19;;;;;;;7.80;2.80;;;;;;;27.65;38.22;98686.88;4501851;31;20411;-87
2022/06/27 00:02:44;;;;;;;7.28;2.87;;;;;;;27.61;38.28;98690.19;4502036;31;20092;-88
2022/06/27 00:05:11;;;;;;;6.68;2.40;;;;;;;27.57;38.34;98683.50;4487578;31;20087;-87
2022/06/27 00:07:37;;;;;;;7.60;2.50;;;;;;;27.56;38.38;98689.94;4501933;31;20209;-88
2022/06/27 00:10:03;;;;;;;6.75;2.55;;;;;;;27.53;38.42;98687.63;4487655;31;20144;-89
2022/06/27 00:12:29;;;;;;;8.80;2.92;;;;;;;27.49;38.42;98692.59;4501761;31;20080;-89
2022/06/27 00:14:54;;;;;;;6.45;2.20;;;;;;;27.48;38.48;98688.19;4487526;31;20111;-85
2022/06/27 00:17:20;;;;;;;8.63;2.70;;;;;;;27.47;38.59;98691.97;4503617;31;20087;-88
2022/06/27 00:19:45;;;;;;;7.93;2.70;;;;;;;27.38;38.67;98693.94;4503913;31;20132;-90
2022/06/27 00:22:11;;;;;;;9.40;3.53;;;;;;;27.39;38.55;98683.94;4504055;31;20361;-90
2022/06/27 00:24:36;;;;;;;8.55;3.05;;;;;;;27.37;38.48;98695.00;4503869;31;20383;-90
2022/06/27 00:27:02;;;;;;;7.47;2.67;;;;;;;27.36;38.35;98693.31;4489533;31;20100;-90
2022/06/27 00:29:27;;;;;;;9.70;3.08;;;;;;;27.35;38.16;98699.75;4503901;31;20114;-89
2022/06/27 00:31:53;;;;;;;7.78;2.92;;;;;;;27.35;37.90;98702.47;4503837;31;20071;-89
2022/06/27 00:34:18;;;;;;;8.60;3.12;;;;;;;27.33;37.95;98701.78;4503766;31;20087;-88
2022/06/27 00:36:44;;;;;;;7.37;2.90;;;;;;;27.34;37.92;98697.25;4503714;31;20088;-90
2022/06/27 00:39:10;;;;;;;6.60;2.60;;;;;;;27.34;38.02;98697.25;4503765;31;20151;-86
2022/06/27 00:41:35;;;;;;;8.73;2.87;;;;;;;27.37;38.15;98699.53;4503805;31;20088;-85
2022/06/27 00:44:01;;;;;;;7.90;3.10;;;;;;;27.36;38.19;98695.19;4503669;31;20339;-93
2022/06/27 00:46:29;;;;;;;6.55;3.00;;;;;;;27.36;38.00;98692.47;4489388;31;20108;-89
2022/06/27 00:48:54;;;;;;;6.65;2.83;;;;;;;27.34;38.04;98689.97;4489489;31;20126;-89
2022/06/27 00:51:20;;;;;;;8.13;3.00;;;;;;;27.35;38.11;98691.66;4503586;31;20088;-89
2022/06/27 00:53:46;;;;;;;7.80;2.70;;;;;;;27.38;38.17;98693.13;4503800;31;20119;-90
2022/06/27 00:56:12;;;;;;;6.82;2.53;;;;;;;27.35;38.41;98697.06;4503958;31;20148;-87
2022/06/27 00:58:37;;;;;;;7.80;2.95;;;;;;;27.31;38.62;98708.44;4503645;31;20122;-90
2022/06/27 01:01:03;;;;;;;8.45;3.00;;;;;;;27.30;38.73;98715.72;4503503;31;20076;-91
2022/06/27 01:03:28;;;;;;;8.50;3.15;;;;;;;27.23;38.90;98712.91;4501733;31;20115;-91
2022/06/27 01:05:54;;;;;;;8.77;3.00;;;;;;;27.22;38.83;98713.94;4488498;31;20149;-91
2022/06/27 01:08:23;;;;;;;7.80;2.80;;;;;;;27.19;38.82;98710.78;4502708;31;20087;-91
2022/06/27 01:10:49;;;;;;;8.07;3.00;;;;;;;27.16;38.86;98712.03;4502642;31;20514;-90
2022/06/27 01:13:15;;;;;;;11.00;3.17;;;;;;;27.15;38.93;98713.03;4488357;31;20110;-90
2022/06/27 01:15:42;;;;;;;7.90;3.03;;;;;;;27.16;38.92;98708.47;4502776;31;20091;-90
2022/06/27 01:18:08;;;;;;;10.43;2.90;;;;;;;27.10;39.00;98714.63;4503690;31;20114;-90
2022/06/27 01:20:34;;;;;;;6.85;2.85;;;;;;;27.11;38.97;98703.63;4503600;31;20088;-90
2022/06/27 01:23:00;;;;;;;8.40;3.15;;;;;;;27.11;39.16;98705.50;4488994;31;20161;-91
2022/06/27 01:25:25;;;;;;;8.55;3.10;;;;;;;27.09;39.30;98707.56;4489032;31;20096;-90
2022/06/27 01:27:51;;;;;;;8.00;3.12;;;;;;;27.04;39.39;98698.19;4503358;31;20080;-91
2022/06/27 01:30:17;;;;;;;9.63;3.62;;;;;;;27.00;39.54;98696.03;4489241;31;20668;-90
2022/06/27 01:32:43;;;;;;;9.90;3.30;;;;;;;26.99;39.59;98699.78;4503392;31;20075;-91
2022/06/27 01:35:09;;;;;;;8.55;2.95;;;;;;;26.95;39.70;98706.59;4503335;31;20087;-89
2022/06/27 01:37:34;;;;;;;8.63;3.20;;;;;;;26.95;39.83;98709.31;4489037;31;20159;-91
2022/06/27 01:40:00;;;;;;;8.10;3.00;;;;;;;26.89;39.81;98705.50;4503340;31;20107;-90
2022/06/27 01:42:26;;;;;;;8.05;2.97;;;;;;;26.79;39.65;98708.50;4489039;31;20129;-90
2022/06/27 01:44:52;;;;;;;8.05;3.12;;;;;;;26.78;39.68;98705.97;4503329;31;20114;-91
2022/06/27 01:47:17;;;;;;;7.40;3.10;;;;;;;26.63;40.00;98708.72;4503183;31;20084;-91
2022/06/27 01:49:43;;;;;;;9.05;3.65;;;;;;;26.57;40.20;98704.87;4488847;31;20087;-90
2022/06/27 01:52:12;;;;;;;9.00;3.35;;;;;;;26.65;40.11;98706.66;4488908;31;20105;-90
2022/06/27 01:54:38;;;;;;;9.55;3.05;;;;;;;26.67;40.05;98710.84;4503289;31;20092;-90
2022/06/27 01:57:05;;;;;;;9.32;3.30;;;;;;;26.68;40.08;98715.22;4503297;31;20434;-90
2022/06/27 01:59:30;;;;;;;7.82;3.22;;;;;;;26.67;40.15;98710.00;4503125;31;20123;-91
2022/06/27 02:01:58;;;;;;;9.05;3.22;;;;;;;26.67;40.29;98715.41;4488878;31;20076;-90
2022/06/27 02:04:23;;;;;;;;;;;;;;;26.65;40.48;98712.06;4503575;31;20559;-90
2022/06/27 02:06:50;;;;;;;8.30;3.22;;;;;;;26.72;40.39;98709.44;4503300;31;19975;-90
2022/06/27 02:09:16;;;;;;;7.90;3.20;;;;;;;26.61;40.71;98716.16;4488777;31;20075;-91
2022/06/27 02:11:44;;;;;;;7.32;2.90;;;;;;;26.53;40.92;98719.78;4488824;31;20464;-90
2022/06/27 02:14:09;;;;;;;9.48;3.67;;;;;;;26.48;41.05;98725.75;4503207;31;20100;-90
2022/06/27 02:16:35;;;;;;;9.88;3.17;;;;;;;26.46;41.06;98727.81;4503158;31;20098;-90
2022/06/27 02:19:00;;;;;;;8.27;3.50;;;;;;;26.41;41.27;98732.94;4502966;31;20072;-91
2022/06/27 02:21:29;;;;;;;10.75;3.60;;;;;;;26.38;41.61;98743.25;4488759;31;20399;-91
2022/06/27 02:23:55;;;;;;;9.15;3.15;;;;;;;26.30;42.02;98736.09;4503102;31;20134;-90
2022/06/27 02:26:24;;;;;;;10.18;3.78;;;;;;;26.24;42.20;98737.66;4503113;31;20166;-90
2022/06/27 02:28:50;;;;;;;9.98;3.87;;;;;;;26.00;42.93;98743.31;4503068;31;20123;-90
2022/06/27 02:31:16;;;;;;;9.43;3.80;;;;;;;25.97;43.03;98747.22;4502970;31;20096;-90
2022/06/27 02:33:43;;;;;;;8.48;3.58;;;;;;;25.95;43.09;98741.19;4502968;31;20084;-90
2022/06/27 02:36:17;;;;;;;10.38;3.72;;;;;;;26.00;43.08;98738.78;4488585;31;20104;-90
2022/06/27 02:38:44;;;;;;;9.18;3.85;;;;;;;26.01;43.18;98739.59;4502270;31;20111;-90
2022/06/27 02:41:16;;;;;;;8.90;3.50;;;;;;;25.94;43.36;98739.53;4502916;31;20080;-90
2022/06/27 02:43:45;;;;;;;10.75;3.85;;;;;;;25.93;43.39;98729.72;4488716;31;20104;-90
2022/06/27 02:46:10;;;;;;;9.95;3.78;;;;;;;25.87;43.67;98736.66;4488628;31;20103;-90
2022/06/27 02:48:37;;;;;;;8.23;3.80;;;;;;;25.88;43.63;98729.41;4502943;31;20485;-90
2022/06/27 02:51:13;;;;;;;10.30;3.67;;;;;;;25.72;44.10;98730.41;4502890;31;20088;-91
2022/06/27 02:53:54;;;;;;;10.55;3.83;;;;;;;25.85;43.88;98741.41;4488504;31;20135;-90
2022/06/27 02:56:22;;;;;;;9.45;3.78;;;;;;;25.81;43.96;98748.19;4488467;31;20108;-90
2022/06/27 02:59:04;;;;;;;8.60;3.62;;;;;;;25.77;44.08;98746.03;4488200;31;20092;-90
2022/06/27 03:01:31;;;;;;;8.15;3.42;;;;;;;25.87;44.06;98752.03;4502906;31;20076;-90
2022/06/27 03:03:58;;;;;;;9.70;4.00;;;;;;;25.87;44.07;98750.16;4488472;31;20168;-90
2022/06/27 03:06:23;;;;;;;9.23;3.70;;;;;;;25.86;44.08;98747.62;4502826;31;20100;-90
2022/06/27 03:08:49;;;;;;;9.25;3.60;;;;;;;25.92;44.00;98754.19;4502696;31;20106;-89
2022/06/27 03:11:17;;;;;;;10.10;3.67;;;;;;;25.92;44.07;98749.63;4488296;31;20085;-90
2022/06/27 03:13:43;;;;;;;9.27;3.83;;;;;;;25.94;44.08;98757.56;4502747;31;20091;-90
2022/06/27 03:16:09;;;;;;;9.75;3.55;;;;;;;25.98;44.07;98764.25;4502897;31;20092;-90
2022/06/27 03:18:35;;;;;;;9.38;3.50;;;;;;;26.00;44.07;98763.06;4488504;31;20106;-90
2022/06/27 03:21:00;;;;;;;11.23;3.37;;;;;;;26.01;44.02;98762.03;4502841;31;20077;-89
2022/06/27 03:23:27;;;;;;;9.73;3.70;;;;;;;26.06;43.92;98766.91;4502960;31;20103;-90
2022/06/27 03:25:52;;;;;;;7.32;3.25;;;;;;;26.14;43.64;98774.09;4475252;31;20470;-90
2022/06/27 03:28:18;;;;;;;8.95;3.78;;;;;;;26.18;43.57;98781.63;4502399;31;20140;-90
2022/06/27 03:30:44;;;;;;;9.02;3.05;;;;;;;26.24;43.36;98778.19;4488159;31;20455;-89
2022/06/27 03:33:09;;;;;;;12.68;3.85;;;;;;;26.22;43.51;98779.38;4488123;31;20112;-90
2022/06/27 03:35:35;;;;;;;9.35;3.70;;;;;;;26.07;43.54;98774.78;4488163;31;20118;-90
2022/06/27 03:38:00;;;;;;;10.30;4.00;;;;;;;26.21;43.44;98781.25;4502318;31;20088;-90
2022/06/27 03:40:25;;;;;;;8.45;3.47;;;;;;;26.23;43.62;98778.34;4487963;31;20415;-90
2022/06/27 03:42:51;;;;;;;9.27;3.95;;;;;;;26.24;43.61;98788.16;4502333;31;20100;-90
2022/06/27 03:45:17;;;;;;;8.20;3.67;;;;;;;26.36;43.62;98783.94;4502394;31;20088;-90
2022/06/27 03:47:51;;;;;;;9.32;3.65;;;;;;;26.13;43.86;98778.62;4487945;31;20380;-90
2022/06/27 03:50:17;;;;;;;8.70;3.45;;;;;;;26.36;43.41;98773.16;4502230;31;20666;-90
2022/06/27 03:52:43;;;;;;;10.50;3.62;;;;;;;26.29;43.51;98778.47;4504125;31;20121;-90
2022/06/27 03:55:09;;;;;;;8.90;3.50;;;;;;;26.40;43.26;98779.84;4504143;31;20396;-90
2022/06/27 03:57:41;;;;;;;10.43;3.22;;;;;;;26.62;42.83;98786.25;4489798;31;20088;-90
2022/06/27 04:00:08;;;;;;;12.35;3.42;;;;;;;26.86;41.60;98779.69;4489477;31;20455;-90
2022/06/27 04:02:35;;;;;;;7.30;2.80;;;;;;;26.82;41.75;98777.56;4504142;31;20095;-90
2022/06/27 04:05:01;;;;;;;8.85;3.37;;;;;;;27.07;41.19;98773.47;4489843;31;20518;-89
2022/06/27 04:07:26;;;;;;;8.93;3.40;;;;;;;27.04;41.30;98778.44;4504085;31;20155;-90
2022/06/27 04:09:52;;;;;;;9.82;3.12;;;;;;;27.04;41.22;98782.00;4504032;31;20084;-89
2022/06/27 04:12:17;;;;;;;10.05;3.53;;;;;;;27.12;41.32;98783.75;4503977;31;20333;-89
2022/06/27 04:14:43;;;;;;;8.90;3.75;;;;;;;27.21;41.26;98788.00;4504033;31;20465;-90
2022/06/27 04:17:08;;;;;;;7.97;3.45;;;;;;;27.43;40.89;98778.06;4503937;31;20079;-90
2022/06/27 04:19:34;;;;;;;11.27;3.35;;;;;;;27.63;40.39;98789.09;4503936;31;20169;-90
2022/06/27 04:21:59;;;;;;;8.93;3.20;;;;;;;27.70;40.05;98785.59;4489447;31;20100;-90
2022/06/27 04:24:25;;;;;;;11.40;3.42;;;;;;;27.77;40.02;98786.50;4503941;31;20111;-90
2022/06/27 04:26:50;;;;;;;8.90;3.33;;;;;;;27.94;39.77;98798.75;4503893;31;20114;-90
2022/06/27 04:29:15;;;;;;;10.02;3.60;;;;;;;27.95;39.44;98800.44;4503701;31;20119;-89
2022/06/27 04:31:41;;;;;;;7.80;2.92;;;;;;;28.08;39.27;98797.00;4503935;31;20084;-89
2022/06/27 04:34:07;;;;;;;9.60;3.15;;;;;;;28.01;39.67;98801.53;4503931;31;20126;-90
2022/06/27 04:36:32;;;;;;;6.90;2.97;;;;;;;28.15;39.17;98802.47;4489386;31;20104;-90
2022/06/27 04:38:58;;;;;;;8.95;3.50;;;;;;;28.15;39.13;98802.47;4489349;31;20092;-89
2022/06/27 04:41:26;;;;;;;9.13;3.58;;;;;;;28.34;38.80;98801.78;4503744;31;20104;-89
2022/06/27 04:43:55;;;;;;;19.85;3.80;;;;;;;28.33;38.84;98797.37;4489646;31;20108;-89
2022/06/27 04:46:21;;;;;;;8.25;3.35;;;;;;;28.46;38.93;98804.78;4489857;31;20142;-89
2022/06/27 04:48:48;;;;;;;6.90;2.80;;;;;;;28.62;38.58;98800.94;4503559;31;20100;-90
2022/06/27 04:51:14;;;;;;;7.10;2.63;;;;;;;28.79;38.37;98799.56;4503772;31;20120;-90
2022/06/27 04:53:41;;;;;;;9.23;2.92;;;;;;;28.92;38.08;98796.09;4503689;31;20193;-89
2022/06/27 04:56:08;;;;;;;10.57;3.30;;;;;;;29.12;37.71;98793.47;4489505;31;20142;-89
2022/06/27 04:58:34;;;;;;;9.65;3.58;;;;;;;29.34;37.33;98802.31;4503476;31;20083;-89
2022/06/27 05:01:00;;;;;;;10.80;3.47;;;;;;;29.34;37.18;98806.88;4489288;31;20532;-89
2022/06/27 05:03:26;;;;;;;8.07;3.35;;;;;;;29.43;36.88;98802.97;4503386;31;20084;-89
2022/06/27 05:05:52;;;;;;;10.60;3.60;;;;;;;29.33;37.06;98811.50;4503580;31;20110;-89
2022/06/27 05:08:18;;;;;;;10.20;3.50;;;;;;;29.34;37.01;98807.75;4503676;31;20084;-89
2022/06/27 05:10:44;;;;;;;8.00;3.20;;;;;;;29.42;37.01;98812.16;4489235;31;20108;-89
2022/06/27 05:13:09;;;;;;;9.00;3.15;;;;;;;29.44;36.91;98809.22;4503452;31;20118;-89
2022/06/27 05:15:37;;;;;;;10.93;3.25;;;;;;;29.37;36.74;98812.75;4503585;31;20385;-89
2022/06/27 05:18:02;;;;;;;;;;;;;;;29.29;37.09;98812.13;4503795;31;20080;-89
2022/06/27 05:20:30;;;;;;;9.80;3.22;;;;;;;29.60;36.75;98806.13;4503359;31;19972;-89
2022/06/27 05:22:56;;;;;;;9.75;3.22;;;;;;;29.82;36.37;98809.50;4503642;31;20148;-89
2022/06/27 05:25:22;;;;;;;8.65;3.30;;;;;;;29.82;36.28;98814.94;4503448;31;20079;-89
2022/06/27 05:27:48;;;;;;;10.38;3.20;;;;;;;29.86;36.21;98818.91;4503759;31;20083;-89
2022/06/27 05:30:15;;;;;;;9.77;3.30;;;;;;;29.94;35.70;98816.03;4503588;31;20114;-89
2022/06/27 05:32:40;;;;;;;;;;;;;;;29.81;36.01;98818.72;4503989;31;20092;-90
2022/06/27 05:35:06;;;;;;;9.35;3.28;;;;;;;29.83;36.45;98816.62;4503699;31;19998;-91
2022/06/27 05:37:31;;;;;;;9.50;3.45;;;;;;;29.83;36.47;98813.09;4503593;31;20329;-89
2022/06/27 05:39:58;;;;;;;15.23;3.70;;;;;;;29.94;36.30;98812.44;4503612;31;20165;-89
2022/06/27 05:42:24;;;;;;;9.35;3.17;;;;;;;30.12;35.88;98812.66;4503665;31;20124;-89
2022/06/27 05:44:49;;;;;;;8.88;3.67;;;;;;;30.19;35.70;98810.78;4503537;31;20084;-89
2022/06/27 05:47:16;;;;;;;11.73;3.70;;;;;;;30.23;35.77;98815.78;4503598;31;20089;-89
2022/06/27 05:49:44;;;;;;;14.87;3.30;;;;;;;30.27;35.79;98812.47;4503671;31;20118;-90
2022/06/27 05:52:10;;;;;;;30.58;4.95;;;;;;;30.44;35.50;98817.47;4476190;31;20515;-89
2022/06/27 05:54:35;;;;;;;12.48;3.83;;;;;;;30.50;35.41;98817.47;4503289;31;20129;-89
2022/06/27 05:57:03;;;;;;;10.05;3.55;;;;;;;30.73;35.05;98821.59;4503223;31;20116;-89
2022/06/27 05:59:29;;;;;;;9.75;3.70;;;;;;;30.70;35.02;98817.41;4502983;31;20100;-89
2022/06/27 06:01:55;;;;;;;10.50;3.75;;;;;;;30.75;34.74;98820.34;4488865;31;20129;-87
2022/06/27 06:04:21;;;;;;;9.20;3.85;;;;;;;30.72;34.68;98822.66;4503168;31;20526;-88
2022/06/27 06:06:47;;;;;;;9.20;3.35;;;;;;;30.60;35.06;98822.47;4503225;31;20107;-88
2022/06/27 06:09:13;;;;;;;27.80;4.68;;;;;;;30.53;35.51;98824.38;4503068;31;20096;-88
2022/06/27 06:11:40;;;;;;;11.12;3.80;;;;;;;30.59;35.42;98818.06;4503093;31;20163;-87
2022/06/27 06:14:06;;;;;;;8.75;3.28;;;;;;;30.78;35.13;98825.34;4502198;31;20127;-88
2022/06/27 06:16:32;;;;;;;11.75;3.78;;;;;;;30.90;35.15;98822.81;4503098;31;20088;-87
2022/06/27 06:18:57;;;;;;;20.27;4.30;;;;;;;30.96;34.45;98823.84;4502917;31;20149;-87
2022/06/27 06:21:23;;;;;;;14.95;4.47;;;;;;;30.90;34.87;98832.88;4503100;31;20106;-87
2022/06/27 06:23:51;;;;;;;10.20;3.62;;;;;;;31.05;34.87;98836.16;4488744;31;20542;-87
2022/06/27 06:26:17;;;;;;;11.38;4.12;;;;;;;30.85;34.87;98838.94;4503055;31;20106;-87
2022/06/27 06:28:51;;;;;;;9.15;4.00;;;;;;;30.95;35.20;98843.97;4503050;31;20123;-87
2022/06/27 06:31:26;;;;;;;9.15;3.78;;;;;;;30.80;35.05;98846.06;4492026;31;20095;-86
2022/06/27 06:33:53;;;;;;;11.20;3.65;;;;;;;30.84;34.93;98839.97;4474057;32;20455;-86
2022/06/27 06:36:19;;;;;;;;;;;;;;;31.00;35.39;98846.84;4487485;32;20080;-85
2022/06/27 06:38:45;;;;;;;17.80;4.07;;;;;;;31.21;34.79;98844.91;4486787;32;19980;-86
2022/06/27 06:41:11;;;;;;;11.77;3.62;;;;;;;31.10;35.03;98844.53;4486969;32;20088;-86
2022/06/27 06:43:37;;;;;;;11.55;4.47;;;;;;;31.30;34.83;98857.22;4487396;32;20107;-87
2022/06/27 06:46:02;;;;;;;20.27;4.78;;;;;;;31.42;34.22;98847.31;4487242;32;20099;-87
2022/06/27 06:48:28;;;;;;;21.02;4.80;;;;;;;31.57;34.52;98848.94;4487140;32;20104;-86
2022/06/27 06:50:54;;;;;;;17.50;4.40;;;;;;;31.55;34.78;98849.97;4487198;32;20097;-87
2022/06/27 06:53:20;;;;;;;9.02;3.70;;;;;;;31.62;34.54;98843.66;4487261;32;20436;-86
2022/06/27 06:55:46;;;;;;;11.43;4.20;;;;;;;31.73;34.13;98848.41;4480116;32;225975;-88
2022/06/27 06:58:11;;;;;;;16.70;4.03;;;;;;;31.91;33.57;98847.66;4487166;32;20138;-87
2022/06/27 07:00:38;;;;;;;10.93;4.00;;;;;;;31.89;34.19;98853.34;4472746;32;20123;-87
2022/06/27 07:03:04;;;;;;;12.63;3.50;;;;;;;31.92;34.30;98849.34;4487103;32;20104;-87
2022/06/27 07:05:31;;;;;;;12.68;4.00;;;;;;;31.98;34.25;98848.44;4487115;32;20103;-88
2022/06/27 07:07:58;;;;;;;10.18;3.80;;;;;;;32.06;33.82;98850.09;4486917;32;20104;-88
2022/06/27 07:10:25;;;;;;;9.90;3.78;;;;;;;31.96;33.98;98844.28;4486852;32;20084;-88
2022/06/27 07:12:51;;;;;;;9.60;4.10;;;;;;;32.18;33.69;98848.34;4472979;32;20080;-88
2022/06/27 07:15:17;;;;;;;8.73;3.90;;;;;;;32.19;33.78;98843.72;4486247;32;20092;-88
2022/06/27 07:17:45;;;;;;;9.38;3.60;;;;;;;32.27;33.64;98840.69;4486802;32;20104;-88
2022/06/27 07:20:11;;;;;;;10.88;4.20;;;;;;;32.33;33.55;98843.34;4487052;32;20095;-88
2022/06/27 07:22:38;;;;;;;12.60;3.80;;;;;;;32.33;33.45;98851.53;4486960;32;20110;-88
2022/06/27 07:25:04;;;;;;;;;;;;;;;32.45;33.12;98843.47;4473131;32;20084;-88
2022/06/27 07:27:31;;;;;;;13.77;4.35;;;;;;;32.60;33.12;98839.59;4487031;32;19987;-88
2022/06/27 07:29:57;;;;;;;7.75;3.40;;;;;;;32.37;33.33;98837.47;4487025;32;20088;-88
2022/06/27 07:32:23;;;;;;;12.40;3.45;;;;;;;32.54;33.26;98844.00;4487030;32;20093;-88
2022/06/27 07:34:50;;;;;;;10.38;3.92;;;;;;;32.52;32.68;98848.84;4486872;32;20108;-88
2022/06/27 07:37:16;;;;;;;10.38;3.70;;;;;;;32.51;32.68;98853.47;4486861;32;20115;-88
2022/06/27 07:39:42;;;;;;;10.30;3.93;;;;;;;32.63;32.55;98852.78;4486834;32;20126;-88
2022/06/27 07:42:08;;;;;;;10.63;3.75;;;;;;;32.53;32.21;98850.53;4472618;32;20164;-88
2022/06/27 07:44:34;;;;;;;8.85;3.70;;;;;;;32.33;32.79;98851.53;4486930;32;20110;-88
2022/06/27 07:47:03;;;;;;;16.48;4.37;;;;;;;32.30;32.70;98851.16;4486711;32;20149;-89
2022/06/27 07:49:28;;;;;;;12.23;3.87;;;;;;;32.52;32.48;98841.50;4486809;32;20172;-89
2022/06/27 07:51:54;;;;;;;10.10;3.62;;;;;;;32.59;32.80;98848.81;4486598;32;20085;-88
2022/06/27 07:54:19;;;;;;;16.27;3.80;;;;;;;32.73;31.92;98847.63;4486574;32;20344;-88
2022/06/27 07:56:46;;;;;;;8.90;3.60;;;;;;;32.60;31.96;98854.03;4486533;32;20462;-88
2022/06/27 07:59:13;;;;;;;18.95;4.10;;;;;;;32.72;32.01;98851.41;4486300;32;20126;-88
2022/06/27 08:01:40;;;;;;;10.18;3.60;;;;;;;32.88;31.52;98853.53;4486454;32;20391;-88
2022/06/27 08:04:07;;;;;;;9.63;4.20;;;;;;;32.83;31.70;98853.38;4459335;32;20076;-88
2022/06/27 08:06:33;;;;;;;10.32;3.72;;;;;;;32.95;31.61;98861.66;4486628;32;20092;-88
2022/06/27 08:09:01;;;;;;;9.38;3.42;;;;;;;32.99;31.47;98862.03;4486451;32;20397;-88
2022/06/27 08:11:32;;;;;;;9.60;3.30;;;;;;;32.84;31.26;98856.97;4486248;32;20118;-88
2022/06/27 08:14:03;;;;;;;9.32;3.33;;;;;;;33.06;31.28;98869.06;4486281;32;20110;-88
2022/06/27 08:16:30;;;;;;;8.90;3.05;;;;;;;32.93;30.67;98861.03;4472193;32;20156;-89
2022/06/27 08:18:55;;;;;;;10.32;3.25;;;;;;;32.94;30.85;98865.44;4471734;32;20420;-88
2022/06/27 08:21:27;;;;;;;10.38;3.33;;;;;;;32.96;30.80;98865.22;4485907;32;20111;-88
2022/06/27 08:23:59;;;;;;;8.40;3.83;;;;;;;32.92;30.80;98860.22;4472171;32;20545;-88
2022/06/27 08:26:25;;;;;;;128.70;10.55;;;;;;;33.13;30.82;98871.78;4472192;32;20084;-89
2022/06/27 08:28:52;;;;;;;12.02;3.67;;;;;;;33.29;31.13;98865.69;4485905;32;20594;-88
2022/06/27 08:31:18;;;;;;;11.48;3.70;;;;;;;33.16;31.09;98860.38;4485896;32;20156;-88
2022/06/27 08:33:45;;;;;;;11.57;3.65;;;;;;;33.27;31.20;98856.06;4485778;32;20081;-89
2022/06/27 08:36:13;;;;;;;7.47;2.90;;;;;;;33.33;30.67;98863.31;4485931;32;20088;-88
2022/06/27 08:38:42;;;;;;;11.00;3.50;;;;;;;33.36;30.01;98859.28;4487916;32;20088;-89
2022/06/27 08:41:10;;;;;;;8.80;3.55;;;;;;;33.32;30.11;98867.09;4474157;32;20117;-88
2022/06/27 08:43:36;;;;;;;7.70;3.33;;;;;;;33.49;29.30;98865.44;4473964;32;20147;-89
2022/06/27 08:46:02;;;;;;;10.57;3.40;;;;;;;33.24;29.96;98867.44;4488075;32;20132;-88
2022/06/27 08:48:31;;;;;;;14.20;4.10;;;;;;;33.27;30.11;98865.06;4488004;32;20103;-88
2022/06/27 08:50:59;;;;;;;8.27;3.33;;;;;;;33.19;30.61;98867.31;4487937;32;20084;-89
2022/06/27 08:53:26;;;;;;;7.28;3.40;;;;;;;33.20;30.52;98872.50;4487938;32;20136;-88
2022/06/27 08:55:51;;;;;;;11.00;4.12;;;;;;;33.26;30.51;98865.28;4487935;32;20131;-88
2022/06/27 08:58:19;;;;;;;35.10;5.03;;;;;;;33.45;30.70;98861.47;4487689;32;20111;-89
2022/06/27 09:00:47;;;;;;;8.57;3.47;;;;;;;33.51;30.61;98862.44;4473926;32;20152;-88
2022/06/27 09:03:17;;;;;;;13.60;3.42;;;;;;;33.59;30.06;98850.37;4473900;32;20103;-88
2022/06/27 09:05:45;;;;;;;12.40;3.70;;;;;;;33.58;29.57;98856.91;4487804;32;20143;-88
2022/06/27 09:08:11;;;;;;;7.68;2.87;;;;;;;33.68;29.41;98854.47;4488098;32;20114;-89
2022/06/27 09:10:42;;;;;;;10.23;3.22;;;;;;;33.66;29.03;98849.25;4487765;32;20114;-88
2022/06/27 09:13:11;;;;;;;8.40;3.05;;;;;;;33.71;28.85;98859.50;4473968;32;20067;-88
2022/06/27 09:15:55;;;;;;;20.27;4.37;;;;;;;33.82;28.64;98857.84;4487594;32;20120;-86
2022/06/27 09:18:26;;;;;;;9.55;3.00;;;;;;;33.88;28.43;98841.34;4487708;32;20110;-86
2022/06/27 09:20:54;;;;;;;9.10;3.45;;;;;;;33.96;28.34;98842.06;4473571;32;20113;-86
2022/06/27 09:23:35;;;;;;;8.88;3.00;;;;;;;34.06;27.77;98839.59;4487722;32;20076;-87
2022/06/27 09:26:08;;;;;;;8.20;3.00;;;;;;;34.03;27.37;98842.78;4474349;32;20139;-87
2022/06/27 09:28:37;;;;;;;19.10;4.25;;;;;;;34.03;28.18;98848.25;4487728;32;20088;-86
2022/06/27 09:31:03;;;;;;;8.77;3.10;;;;;;;33.95;28.62;98837.69;4487698;32;20131;-86
2022/06/27 09:33:31;;;;;;;11.10;3.70;;;;;;;33.93;28.82;98840.66;4487610;32;20080;-85
2022/06/27 09:35:56;;;;;;;10.07;3.67;;;;;;;33.99;28.98;98836.13;4473647;32;20116;-86
2022/06/27 09:38:22;;;;;;;9.00;3.22;;;;;;;34.06;29.12;98839.59;4473446;32;20123;-86
2022/06/27 09:40:48;;;;;;;10.60;3.60;;;;;;;34.08;28.78;98834.72;4487667;32;20084;-86
2022/06/27 09:43:16;;;;;;;8.80;3.65;;;;;;;34.11;29.06;98833.41;4473433;32;20360;-86
2022/06/27 09:45:42;;;;;;;8.70;3.28;;;;;;;33.94;28.92;98836.00;4473478;32;20449;-86
2022/06/27 09:48:08;;;;;;;9.25;3.10;;;;;;;33.93;28.90;98839.81;4491223;31;20085;-89
2022/06/27 09:50:39;;;;;;;8.52;3.03;;;;;;;34.00;28.89;98830.44;4503139;31;20132;-91
2022/06/27 09:53:05;;;;;;;8.13;3.33;;;;;;;34.12;29.01;98835.09;4503298;31;20461;-87
2022/06/27 09:55:31;;;;;;;41.70;4.97;;;;;;;34.08;28.50;98830.09;4503288;31;20100;-89
2022/06/27 09:57:57;;;;;;;7.40;2.90;;;;;;;34.16;28.26;98825.38;4503084;31;20112;-90
2022/06/27 10:00:23;;;;;;;10.23;3.30;;;;;;;34.22;26.30;98821.69;4491886;31;20107;-89
2022/06/27 10:02:49;;;;;;;8.32;3.15;;;;;;;34.07;27.33;98814.78;4488948;31;20696;-89
2022/06/27 10:05:19;;;;;;;9.65;3.37;;;;;;;34.05;27.54;98830.56;4488946;31;20115;-90
2022/06/27 10:08:03;;;;;;;8.38;3.12;;;;;;;34.03;27.66;98826.41;4488946;31;20126;-92
2022/06/27 10:10:30;;;;;;;6.90;2.70;;;;;;;34.07;27.66;98822.97;4504333;31;20097;-88
2022/06/27 10:12:58;;;;;;;7.70;2.90;;;;;;;33.99;27.88;98817.84;4489834;31;20107;-90
2022/06/27 10:15:28;;;;;;;11.12;3.30;;;;;;;34.04;27.80;98820.69;4503610;31;20792;-88
2022/06/27 10:17:56;;;;;;;17.17;4.07;;;;;;;34.08;27.76;98810.13;4489843;31;20177;-88
2022/06/27 10:20:34;;;;;;;10.15;3.00;;;;;;;34.01;27.98;98815.69;4503869;31;20248;-89
2022/06/27 10:23:09;;;;;;;7.72;3.20;;;;;;;34.02;27.87;98813.81;4489130;31;20126;-90
2022/06/27 10:25:42;;;;;;;9.10;2.78;;;;;;;34.07;27.23;98806.56;4502937;31;20092;-88
2022/06/27 10:28:07;;;;;;;14.10;3.47;;;;;;;34.02;27.34;98803.72;4502997;31;20103;-89
2022/06/27 10:31:00;;;;;;;8.60;3.30;;;;;;;33.94;27.49;98801.31;4503001;31;20100;-85
2022/06/27 10:33:25;;;;;;;9.73;3.30;;;;;;;33.97;27.99;98797.28;4475613;31;20427;-87
2022/06/27 10:35:54;;;;;;;8.70;3.20;;;;;;;33.94;28.09;98795.88;4503099;31;20153;-86
2022/06/27 10:38:24;;;;;;;11.35;3.50;;;;;;;33.85;28.09;98792.62;4502965;31;20100;-87
2022/06/27 10:40:53;;;;;;;8.02;3.30;;;;;;;33.91;27.76;98795.50;4503082;31;20439;-86
2022/06/27 10:43:37;;;;;;;9.75;3.17;;;;;;;33.88;27.76;98791.31;4488911;31;20084;-87
2022/06/27 10:46:08;;;;;;;8.00;3.40;;;;;;;33.93;27.28;98791.44;4488643;31;20130;-87
2022/06/27 10:48:51;;;;;;;8.70;3.35;;;;;;;33.95;27.87;98788.47;4503003;31;20096;-86
2022/06/27 10:51:19;;;;;;;13.18;3.55;;;;;;;33.72;28.28;98778.34;4502940;31;20080;-86
2022/06/27 10:53:45;;;;;;;21.90;4.82;;;;;;;33.65;28.75;98778.44;4502955;31;20096;-86
2022/06/27 10:56:29;;;;;;;17.37;4.03;;;;;;;33.79;28.86;98781.81;4488483;31;20144;-86
2022/06/27 10:58:59;;;;;;;20.35;4.25;;;;;;;33.88;28.50;98778.50;4488213;31;20127;-86
2022/06/27 11:01:24;;;;;;;9.95;3.47;;;;;;;33.92;28.23;98776.13;4487930;31;20166;-86
2022/06/27 11:03:50;;;;;;;20.23;4.20;;;;;;;33.87;28.37;98785.03;4502807;31;20091;-85
2022/06/27 11:06:16;;;;;;;11.33;3.23;;;;;;;34.05;28.20;98781.34;4502785;31;20084;-86
2022/06/27 11:08:46;;;;;;;7.97;3.20;;;;;;;34.03;28.16;98782.66;4488377;31;20142;-86
2022/06/27 11:11:20;;;;;;;9.35;3.25;;;;;;;34.03;28.18;98775.28;4502809;31;20087;-86
2022/06/27 11:13:53;;;;;;;8.98;3.58;;;;;;;34.10;28.24;98777.91;4488293;31;20100;-87
2022/06/27 11:16:31;;;;;;;16.60;3.87;;;;;;;34.30;27.85;98760.34;4488791;31;20164;-87
2022/06/27 11:19:02;;;;;;;8.13;3.30;;;;;;;34.32;28.09;98760.94;4502523;31;20080;-86
2022/06/27 11:21:38;;;;;;;12.13;3.70;;;;;;;34.32;27.99;98759.03;4502699;31;20056;-85
2022/06/27 11:24:11;;;;;;;8.27;3.05;;;;;;;34.55;27.66;98757.34;4502607;31;20088;-85
2022/06/27 11:26:44;;;;;;;9.02;3.20;;;;;;;34.55;27.29;98749.16;4488972;31;20159;-85
2022/06/27 11:32:14;;;;;;;10.20;3.55;;;;;;;34.59;27.47;98744.84;4502591;31;20134;-86
2022/06/27 11:34:41;;;;;;;10.18;3.40;;;;;;;34.54;27.38;98753.78;4502452;31;20437;-86